Time,TemperatureF,DewpointF,PressureIn,WindDirection,WindDirectionDegrees,WindSpeedMPH,WindSpeedGustMPH,Humidity,HourlyPrecipIn,Conditions,Clouds,dailyrainin,SoftwareType,DateUTC
2013-08-03 00:33:00,69.0,67.0,30.07,ESE,114,1.0,1.0,93,-99.99,,,-99.99,,2013-08-03 04:33:00,
2013-08-03 00:43:00,69.0,67.0,-100.00,ENE,71,1.0,1.0,93,-99.99,,,-99.99,,2013-08-03 04:43:00,
2013-08-03 00:53:00,69.0,67.0,-100.00,ENE,71,1.0,1.0,93,-99.99,,,-99.99,,2013-08-03 04:53:00,
2013-08-03 01:32:00,69.0,67.0,30.06,NNW,339,1.0,1.0,93,-99.99,,,-99.99,,2013-08-03 05:32:00,
2013-08-03 01:42:00,69.0,67.0,-100.00,SW,233,1.0,1.0,93,-99.99,,,-99.99,,2013-08-03 05:42:00,
2013-08-03 02:32:00,68.0,66.0,30.06,ENE,57,1.0,1.0,93,-99.99,,,-99.99,,2013-08-03 06:32:00,
2013-08-03 02:42:00,68.0,66.0,-100.00,NNW,337,1.0,1.0,93,-99.99,,,-99.99,,2013-08-03 06:42:00,
2013-08-03 03:32:00,68.0,66.0,30.05,SSE,156,0.0,1.0,93,-99.99,,,-99.99,,2013-08-03 07:32:00,
2013-08-03 03:43:00,68.0,66.0,-100.00,SW,226,1.0,1.0,93,-99.99,,,-99.99,,2013-08-03 07:43:00,
2013-08-03 03:53:00,68.0,66.0,-100.00,SW,226,1.0,1.0,93,-99.99,,,-99.99,,2013-08-03 07:53:00,
2013-08-03 04:32:00,67.0,65.0,30.03,North,355,1.0,2.0,93,-99.99,,,-99.99,,2013-08-03 08:32:00,
2013-08-03 04:43:00,67.0,65.0,-100.00,ESE,116,1.0,1.0,93,-99.99,,,-99.99,,2013-08-03 08:43:00,
2013-08-03 04:52:00,67.0,65.0,-100.00,ESE,116,1.0,1.0,93,-99.99,,,-99.99,,2013-08-03 08:52:00,
2013-08-03 05:02:00,67.0,65.0,30.03,North,7,1.0,2.0,93,-99.99,,,-99.99,,2013-08-03 09:02:00,
2013-08-03 05:32:00,67.0,65.0,30.03,ESE,115,1.0,2.0,93,-99.99,,,-99.99,,2013-08-03 09:32:00,
2013-08-03 05:43:00,67.0,65.0,-100.00,South,170,1.0,1.0,93,-99.99,,,-99.99,,2013-08-03 09:43:00,
2013-08-03 05:53:00,67.0,65.0,-100.00,South,170,1.0,1.0,93,-99.99,,,-99.99,,2013-08-03 09:53:00,
2013-08-03 06:33:00,67.0,65.0,30.05,SSE,150,1.0,2.0,93,-99.99,,,-99.99,,2013-08-03 10:33:00,
2013-08-03 06:43:00,67.0,65.0,-100.00,SE,135,1.0,1.0,93,-99.99,,,-99.99,,2013-08-03 10:43:00,
2013-08-03 06:53:00,67.0,65.0,-100.00,SE,135,1.0,1.0,93,-99.99,,,-99.99,,2013-08-03 10:53:00,
2013-08-03 07:32:00,68.0,66.0,30.05,NNW,347,1.0,1.0,93,-99.99,,,-99.99,,2013-08-03 11:32:00,
2013-08-03 07:43:00,68.0,66.0,-100.00,NNE,30,0.0,1.0,93,-99.99,,,-99.99,,2013-08-03 11:43:00,
2013-08-03 07:53:00,68.0,66.0,-100.00,NNE,30,0.0,1.0,93,-99.99,,,-99.99,,2013-08-03 11:53:00,
2013-08-03 08:33:00,69.0,67.0,30.06,ENE,71,1.0,2.0,93,-99.99,,,-99.99,,2013-08-03 12:33:00,
2013-08-03 08:43:00,70.0,68.0,-100.00,SSW,211,1.0,2.0,93,-99.99,,,-99.99,,2013-08-03 12:43:00,
2013-08-03 08:52:00,70.0,68.0,-100.00,SSW,211,1.0,2.0,93,-99.99,,,-99.99,,2013-08-03 12:52:00,
2013-08-03 09:33:00,74.0,72.0,30.06,SSW,194,2.0,5.0,93,-99.99,,,-99.99,,2013-08-03 13:33:00,
2013-08-03 09:43:00,75.0,72.0,-100.00,SSW,201,3.0,5.0,91,-99.99,,,-99.99,,2013-08-03 13:43:00,
2013-08-03 09:52:00,75.0,72.0,-100.00,SSW,201,3.0,5.0,91,-99.99,,,-99.99,,2013-08-03 13:52:00,
2013-08-03 10:02:00,76.0,73.0,30.06,South,186,3.0,6.0,89,-99.99,,,-99.99,,2013-08-03 14:02:00,
2013-08-03 10:33:00,78.0,73.0,30.06,South,169,3.0,7.0,85,-99.99,,,-99.99,,2013-08-03 14:33:00,
2013-08-03 10:43:00,78.0,73.0,-100.00,SSW,210,3.0,6.0,84,-99.99,,,-99.99,,2013-08-03 14:43:00,
2013-08-03 11:02:00,79.0,73.0,30.05,SSW,192,3.0,7.0,81,-99.99,,,-99.99,,2013-08-03 15:02:00,
2013-08-03 11:32:00,79.0,73.0,-100.00,SW,223,4.0,8.0,81,-99.99,,,-99.99,,2013-08-03 15:32:00,
2013-08-03 11:43:00,80.0,74.0,30.04,NW,320,-999.0,-999.0,81,-99.99,,,-99.99,,2013-08-03 15:43:00,
2013-08-03 11:53:00,80.0,74.0,30.04,NW,320,-999.0,-999.0,81,-99.99,,,-99.99,,2013-08-03 15:53:00,
2013-08-03 12:02:00,82.0,73.0,-100.00,SSW,207,4.0,9.0,76,-99.99,,,-99.99,,2013-08-03 16:02:00,
2013-08-03 12:33:00,83.0,73.0,-100.00,West,268,6.0,10.0,71,-99.99,,,-99.99,,2013-08-03 16:33:00,
2013-08-03 12:43:00,84.0,-99.9,30.03,SW,231,-999.0,-999.0,-999,-99.99,,,-99.99,,2013-08-03 16:43:00,
2013-08-03 12:53:00,84.0,-99.9,30.03,SW,231,-999.0,-999.0,-999,-99.99,,,-99.99,,2013-08-03 16:53:00,
2013-08-03 13:03:00,84.0,73.0,30.03,SSW,212,5.0,10.0,70,-99.99,,,-99.99,,2013-08-03 17:03:00,
2013-08-03 13:32:00,85.0,73.0,-100.00,South,176,5.0,10.0,66,-99.99,,,-99.99,,2013-08-03 17:32:00,
2013-08-03 13:43:00,86.0,-99.9,-100.00,SSW,208,-999.0,-999.0,-999,-99.99,,,-99.99,,2013-08-03 17:43:00,
2013-08-03 13:52:00,86.0,-99.9,-100.00,SSW,208,-999.0,-999.0,-999,-99.99,,,-99.99,,2013-08-03 17:52:00,
2013-08-03 14:02:00,85.0,71.0,-100.00,WSW,245,5.0,10.0,63,-99.99,,,-99.99,,2013-08-03 18:02:00,
2013-08-03 14:32:00,86.0,71.0,-100.00,SSW,198,5.0,13.0,59,-99.99,,,-99.99,,2013-08-03 18:32:00,
2013-08-03 14:43:00,87.0,-99.9,30.01,SW,226,-999.0,-999.0,-999,-99.99,,,-99.99,,2013-08-03 18:43:00,
2013-08-03 14:53:00,87.0,-99.9,30.01,SW,226,-999.0,-999.0,-999,-99.99,,,-99.99,,2013-08-03 18:53:00,
2013-08-03 15:03:00,87.0,71.0,30.00,WSW,245,4.0,10.0,59,-99.99,,,-99.99,,2013-08-03 19:03:00,
2013-08-03 15:32:00,87.0,72.0,-100.00,SW,216,5.0,12.0,60,-99.99,,,-99.99,,2013-08-03 19:32:00,
2013-08-03 15:43:00,87.0,-99.9,29.99,WSW,243,-999.0,-999.0,-999,-99.99,,,-99.99,,2013-08-03 19:43:00,
2013-08-03 15:53:00,87.0,-99.9,29.99,WSW,243,-999.0,-999.0,-999,-99.99,,,-99.99,,2013-08-03 19:53:00,
2013-08-03 16:02:00,86.0,71.0,29.99,SW,227,5.0,10.0,60,-99.99,,,-99.99,,2013-08-03 20:02:00,
2013-08-03 16:12:00,86.0,71.0,29.99,SW,227,5.0,10.0,60,-99.99,,,-99.99,,2013-08-03 20:12:00,
2013-08-03 16:32:00,87.0,71.0,-100.00,WSW,258,5.0,10.0,59,-99.99,,,-99.99,,2013-08-03 20:32:00,
2013-08-03 16:42:00,86.0,-99.9,29.98,SSW,212,-999.0,-999.0,-999,-99.99,,,-99.99,,2013-08-03 20:42:00,
2013-08-03 16:52:00,86.0,-99.9,29.98,SSW,212,-999.0,-999.0,-999,-99.99,,,-99.99,,2013-08-03 20:52:00,
2013-08-03 17:02:00,86.0,71.0,29.97,SW,217,4.0,9.0,60,-99.99,,,-99.99,,2013-08-03 21:02:00,
2013-08-03 17:32:00,87.0,71.0,-100.00,WSW,246,4.0,10.0,60,-99.99,,,-99.99,,2013-08-03 21:32:00,
2013-08-03 17:42:00,87.0,-99.9,29.97,SW,223,-999.0,-999.0,-999,-99.99,,,-99.99,,2013-08-03 21:42:00,
2013-08-03 17:52:00,87.0,-99.9,29.97,SW,223,-999.0,-999.0,-999,-99.99,,,-99.99,,2013-08-03 21:52:00,
2013-08-03 18:02:00,87.0,70.0,29.97,WNW,299,5.0,13.0,57,-99.99,,,-99.99,,2013-08-03 22:02:00,
2013-08-03 18:33:00,86.0,71.0,29.98,WNW,297,2.0,8.0,61,-99.99,,,-99.99,,2013-08-03 22:33:00,
2013-08-03 18:43:00,86.0,-99.9,-100.00,NE,34,2.0,6.0,-999,-99.99,,,-99.99,,2013-08-03 22:43:00,
2013-08-03 18:52:00,86.0,-99.9,-100.00,NE,34,2.0,6.0,-999,-99.99,,,-99.99,,2013-08-03 22:52:00,
2013-08-03 19:02:00,87.0,71.0,29.97,NW,320,2.0,5.0,60,-99.99,,,-99.99,,2013-08-03 23:02:00,
2013-08-03 19:22:00,85.0,69.0,29.97,WNW,289,2.0,7.0,58,-99.99,,,-99.99,,2013-08-03 23:22:00,
2013-08-03 19:32:00,85.0,69.0,29.97,WNW,289,2.0,7.0,58,-99.99,,,-99.99,,2013-08-03 23:32:00,
2013-08-03 19:43:00,83.0,71.0,-100.00,WSW,257,1.0,3.0,67,-99.99,,,-99.99,,2013-08-03 23:43:00,
2013-08-03 20:03:00,83.0,73.0,29.96,South,171,0.0,2.0,72,-99.99,,,-99.99,,2013-08-04 00:03:00,
2013-08-03 21:02:00,76.0,72.0,29.98,SSE,166,1.0,2.0,88,-99.99,,,-99.99,,2013-08-04 01:02:00,
2013-08-03 21:22:00,74.0,71.0,29.98,ENE,70,1.0,2.0,91,-99.99,,,-99.99,,2013-08-04 01:22:00,
2013-08-03 21:32:00,74.0,71.0,29.98,ENE,70,1.0,2.0,91,-99.99,,,-99.99,,2013-08-04 01:32:00,
2013-08-03 21:42:00,73.0,71.0,-100.00,NW,311,1.0,1.0,91,-99.99,,,-99.99,,2013-08-04 01:42:00,
2013-08-03 22:32:00,72.0,70.0,29.99,East,94,1.0,1.0,92,-99.99,,,-99.99,,2013-08-04 02:32:00,
2013-08-03 22:42:00,71.0,69.0,-100.00,ESE,114,0.0,1.0,92,-99.99,,,-99.99,,2013-08-04 02:42:00,
2013-08-03 23:32:00,71.0,69.0,30.00,South,187,1.0,1.0,92,-99.99,,,-99.99,,2013-08-04 03:32:00,